sensor_id;sensor_type;location;lat;lon;timestamp;P1;durP1;ratioP1;P2;durP2;ratioP2
75691;SDS011;64307;52.508;6.090;2022-11-20T00:03:06;23.10;;;11.60;;
75691;SDS011;64307;52.508;6.090;2022-11-20T00:05:32;19.13;;;11.10;;
75691;SDS011;64307;52.508;6.090;2022-11-20T00:07:57;19.63;;;10.25;;
75691;SDS011;64307;52.508;6.090;2022-11-20T00:10:23;23.83;;;12.57;;
75691;SDS011;64307;52.508;6.090;2022-11-20T00:12:48;20.30;;;10.87;;
75691;SDS011;64307;52.508;6.090;2022-11-20T00:15:13;21.35;;;10.75;;
75691;SDS011;64307;52.508;6.090;2022-11-20T00:17:38;21.08;;;9.85;;
75691;SDS011;64307;52.508;6.090;2022-11-20T00:20:04;19.55;;;9.85;;
75691;SDS011;64307;52.508;6.090;2022-11-20T00:22:30;22.38;;;11.48;;
75691;SDS011;64307;52.508;6.090;2022-11-20T00:24:55;22.83;;;10.87;;
75691;SDS011;64307;52.508;6.090;2022-11-20T00:27:22;24.83;;;11.43;;
75691;SDS011;64307;52.508;6.090;2022-11-20T00:29:47;17.60;;;9.30;;
75691;SDS011;64307;52.508;6.090;2022-11-20T00:32:12;17.70;;;9.97;;
75691;SDS011;64307;52.508;6.090;2022-11-20T00:34:38;17.67;;;9.33;;
75691;SDS011;64307;52.508;6.090;2022-11-20T00:37:03;18.90;;;9.25;;
75691;SDS011;64307;52.508;6.090;2022-11-20T00:39:28;20.58;;;9.98;;
75691;SDS011;64307;52.508;6.090;2022-11-20T00:41:53;19.03;;;9.43;;
75691;SDS011;64307;52.508;6.090;2022-11-20T00:44:19;19.03;;;9.80;;
75691;SDS011;64307;52.508;6.090;2022-11-20T00:46:44;19.60;;;10.23;;
75691;SDS011;64307;52.508;6.090;2022-11-20T00:49:09;18.87;;;9.83;;
75691;SDS011;64307;52.508;6.090;2022-11-20T00:51:34;21.87;;;10.47;;
75691;SDS011;64307;52.508;6.090;2022-11-20T00:54:00;17.20;;;9.77;;
75691;SDS011;64307;52.508;6.090;2022-11-20T00:56:27;19.50;;;9.05;;
75691;SDS011;64307;52.508;6.090;2022-11-20T00:58:52;19.48;;;9.45;;
75691;SDS011;64307;52.508;6.090;2022-11-20T01:01:18;19.43;;;10.03;;
75691;SDS011;64307;52.508;6.090;2022-11-20T01:03:52;19.48;;;10.13;;
75691;SDS011;64307;52.508;6.090;2022-11-20T01:06:20;17.63;;;8.80;;
75691;SDS011;64307;52.508;6.090;2022-11-20T01:08:47;18.35;;;9.13;;
75691;SDS011;64307;52.508;6.090;2022-11-20T01:11:14;16.17;;;8.60;;
75691;SDS011;64307;52.508;6.090;2022-11-20T01:13:45;18.05;;;9.30;;
75691;SDS011;64307;52.508;6.090;2022-11-20T01:16:19;18.23;;;9.60;;
75691;SDS011;64307;52.508;6.090;2022-11-20T01:18:47;21.83;;;9.73;;
75691;SDS011;64307;52.508;6.090;2022-11-20T01:21:16;19.15;;;8.95;;
75691;SDS011;64307;52.508;6.090;2022-11-20T01:23:43;18.90;;;9.80;;
75691;SDS011;64307;52.508;6.090;2022-11-20T01:26:10;14.95;;;7.80;;
75691;SDS011;64307;52.508;6.090;2022-11-20T01:28:36;20.77;;;9.20;;
75691;SDS011;64307;52.508;6.090;2022-11-20T01:31:09;17.98;;;9.27;;
75691;SDS011;64307;52.508;6.090;2022-11-20T01:33:43;16.15;;;8.77;;
75691;SDS011;64307;52.508;6.090;2022-11-20T01:36:10;18.33;;;8.48;;
75691;SDS011;64307;52.508;6.090;2022-11-20T01:38:36;18.05;;;8.57;;
75691;SDS011;64307;52.508;6.090;2022-11-20T01:41:01;17.50;;;8.98;;
75691;SDS011;64307;52.508;6.090;2022-11-20T01:43:27;19.75;;;9.95;;
75691;SDS011;64307;52.508;6.090;2022-11-20T01:45:56;17.95;;;8.65;;
75691;SDS011;64307;52.508;6.090;2022-11-20T01:48:33;16.55;;;8.95;;
75691;SDS011;64307;52.508;6.090;2022-11-20T01:51:04;17.17;;;9.38;;
75691;SDS011;64307;52.508;6.090;2022-11-20T01:53:37;18.02;;;9.63;;
75691;SDS011;64307;52.508;6.090;2022-11-20T01:56:03;17.38;;;8.88;;
75691;SDS011;64307;52.508;6.090;2022-11-20T01:58:35;20.48;;;9.25;;
75691;SDS011;64307;52.508;6.090;2022-11-20T02:01:04;17.08;;;9.32;;
75691;SDS011;64307;52.508;6.090;2022-11-20T02:03:30;19.50;;;9.30;;
75691;SDS011;64307;52.508;6.090;2022-11-20T02:08:30;17.05;;;8.75;;
75691;SDS011;64307;52.508;6.090;2022-11-20T02:16:08;15.18;;;8.05;;
75691;SDS011;64307;52.508;6.090;2022-11-20T02:18:55;18.10;;;8.93;;
75691;SDS011;64307;52.508;6.090;2022-11-20T02:24:08;17.15;;;8.40;;
75691;SDS011;64307;52.508;6.090;2022-11-20T02:26:39;17.23;;;8.63;;
75691;SDS011;64307;52.508;6.090;2022-11-20T02:29:09;18.85;;;9.68;;
75691;SDS011;64307;52.508;6.090;2022-11-20T02:31:38;17.45;;;8.48;;
75691;SDS011;64307;52.508;6.090;2022-11-20T02:34:06;17.38;;;8.85;;
75691;SDS011;64307;52.508;6.090;2022-11-20T02:36:32;18.05;;;9.18;;
75691;SDS011;64307;52.508;6.090;2022-11-20T02:38:59;16.77;;;9.60;;
75691;SDS011;64307;52.508;6.090;2022-11-20T02:41:34;19.20;;;9.90;;
75691;SDS011;64307;52.508;6.090;2022-11-20T02:44:01;19.02;;;9.38;;
75691;SDS011;64307;52.508;6.090;2022-11-20T02:51:19;18.43;;;8.47;;
75691;SDS011;64307;52.508;6.090;2022-11-20T02:53:44;18.77;;;9.07;;
75691;SDS011;64307;52.508;6.090;2022-11-20T02:56:10;18.20;;;8.80;;
75691;SDS011;64307;52.508;6.090;2022-11-20T02:58:35;20.73;;;9.90;;
75691;SDS011;64307;52.508;6.090;2022-11-20T03:01:00;24.37;;;10.43;;
75691;SDS011;64307;52.508;6.090;2022-11-20T03:03:25;18.00;;;9.83;;
75691;SDS011;64307;52.508;6.090;2022-11-20T03:05:51;21.07;;;9.67;;
75691;SDS011;64307;52.508;6.090;2022-11-20T03:08:16;19.23;;;10.52;;
75691;SDS011;64307;52.508;6.090;2022-11-20T03:10:41;18.70;;;9.52;;
75691;SDS011;64307;52.508;6.090;2022-11-20T03:13:07;18.50;;;9.43;;
75691;SDS011;64307;52.508;6.090;2022-11-20T03:15:32;16.53;;;9.33;;
75691;SDS011;64307;52.508;6.090;2022-11-20T03:17:57;17.63;;;9.88;;
75691;SDS011;64307;52.508;6.090;2022-11-20T03:20:23;21.65;;;10.07;;
75691;SDS011;64307;52.508;6.090;2022-11-20T03:22:48;19.30;;;9.57;;
75691;SDS011;64307;52.508;6.090;2022-11-20T03:25:13;22.17;;;10.23;;
75691;SDS011;64307;52.508;6.090;2022-11-20T03:27:39;17.05;;;9.70;;
75691;SDS011;64307;52.508;6.090;2022-11-20T03:30:05;18.55;;;9.82;;
75691;SDS011;64307;52.508;6.090;2022-11-20T03:32:31;18.05;;;9.85;;
75691;SDS011;64307;52.508;6.090;2022-11-20T03:34:56;16.35;;;8.23;;
75691;SDS011;64307;52.508;6.090;2022-11-20T03:37:21;21.77;;;9.50;;
75691;SDS011;64307;52.508;6.090;2022-11-20T03:39:47;18.73;;;9.50;;
75691;SDS011;64307;52.508;6.090;2022-11-20T03:42:12;18.25;;;9.25;;
75691;SDS011;64307;52.508;6.090;2022-11-20T03:44:56;20.33;;;10.10;;
75691;SDS011;64307;52.508;6.090;2022-11-20T03:47:21;20.30;;;10.23;;
75691;SDS011;64307;52.508;6.090;2022-11-20T03:49:46;18.25;;;9.35;;
75691;SDS011;64307;52.508;6.090;2022-11-20T03:52:11;21.88;;;10.68;;
75691;SDS011;64307;52.508;6.090;2022-11-20T03:54:37;23.13;;;11.68;;
75691;SDS011;64307;52.508;6.090;2022-11-20T03:57:02;19.53;;;10.47;;
75691;SDS011;64307;52.508;6.090;2022-11-20T03:59:27;20.42;;;10.38;;
75691;SDS011;64307;52.508;6.090;2022-11-20T04:01:53;18.63;;;9.93;;
75691;SDS011;64307;52.508;6.090;2022-11-20T04:04:18;16.58;;;8.65;;
75691;SDS011;64307;52.508;6.090;2022-11-20T04:06:43;19.65;;;9.65;;
75691;SDS011;64307;52.508;6.090;2022-11-20T04:09:08;18.08;;;9.43;;
75691;SDS011;64307;52.508;6.090;2022-11-20T04:11:35;19.90;;;10.73;;
75691;SDS011;64307;52.508;6.090;2022-11-20T04:14:05;23.08;;;10.65;;
75691;SDS011;64307;52.508;6.090;2022-11-20T04:16:36;18.50;;;9.52;;
75691;SDS011;64307;52.508;6.090;2022-11-20T04:19:03;23.35;;;11.23;;
75691;SDS011;64307;52.508;6.090;2022-11-20T04:21:30;20.30;;;9.75;;
75691;SDS011;64307;52.508;6.090;2022-11-20T04:23:55;19.42;;;9.82;;
75691;SDS011;64307;52.508;6.090;2022-11-20T04:26:22;22.67;;;9.88;;
75691;SDS011;64307;52.508;6.090;2022-11-20T04:28:49;20.48;;;9.38;;
75691;SDS011;64307;52.508;6.090;2022-11-20T04:31:15;20.40;;;9.77;;
75691;SDS011;64307;52.508;6.090;2022-11-20T04:33:42;20.38;;;10.63;;
75691;SDS011;64307;52.508;6.090;2022-11-20T04:36:12;16.83;;;9.10;;
75691;SDS011;64307;52.508;6.090;2022-11-20T04:38:39;16.73;;;9.25;;
75691;SDS011;64307;52.508;6.090;2022-11-20T04:41:05;19.35;;;9.27;;
75691;SDS011;64307;52.508;6.090;2022-11-20T04:43:32;21.92;;;10.20;;
75691;SDS011;64307;52.508;6.090;2022-11-20T04:45:58;19.83;;;9.52;;
75691;SDS011;64307;52.508;6.090;2022-11-20T04:48:25;20.02;;;9.85;;
75691;SDS011;64307;52.508;6.090;2022-11-20T04:50:51;18.10;;;9.40;;
75691;SDS011;64307;52.508;6.090;2022-11-20T04:53:17;20.95;;;9.55;;
75691;SDS011;64307;52.508;6.090;2022-11-20T04:55:43;20.80;;;10.07;;
75691;SDS011;64307;52.508;6.090;2022-11-20T04:58:09;19.52;;;9.68;;
75691;SDS011;64307;52.508;6.090;2022-11-20T05:00:34;19.33;;;9.55;;
75691;SDS011;64307;52.508;6.090;2022-11-20T05:02:59;19.23;;;9.35;;
75691;SDS011;64307;52.508;6.090;2022-11-20T05:05:25;21.00;;;9.85;;
75691;SDS011;64307;52.508;6.090;2022-11-20T05:07:50;19.95;;;9.32;;
75691;SDS011;64307;52.508;6.090;2022-11-20T05:10:16;19.45;;;9.63;;
75691;SDS011;64307;52.508;6.090;2022-11-20T05:12:41;20.67;;;10.23;;
75691;SDS011;64307;52.508;6.090;2022-11-20T05:15:06;17.90;;;9.07;;
75691;SDS011;64307;52.508;6.090;2022-11-20T05:17:32;18.75;;;9.10;;
75691;SDS011;64307;52.508;6.090;2022-11-20T05:19:57;16.30;;;9.17;;
75691;SDS011;64307;52.508;6.090;2022-11-20T05:22:23;19.40;;;9.70;;
75691;SDS011;64307;52.508;6.090;2022-11-20T05:24:48;16.13;;;8.67;;
75691;SDS011;64307;52.508;6.090;2022-11-20T05:27:13;21.67;;;9.65;;
75691;SDS011;64307;52.508;6.090;2022-11-20T05:29:38;18.67;;;9.17;;
75691;SDS011;64307;52.508;6.090;2022-11-20T05:32:04;17.15;;;8.63;;
75691;SDS011;64307;52.508;6.090;2022-11-20T05:34:31;17.25;;;9.13;;
75691;SDS011;64307;52.508;6.090;2022-11-20T05:36:56;14.80;;;8.40;;
75691;SDS011;64307;52.508;6.090;2022-11-20T05:39:21;17.50;;;9.33;;
75691;SDS011;64307;52.508;6.090;2022-11-20T05:41:47;20.35;;;9.75;;
75691;SDS011;64307;52.508;6.090;2022-11-20T05:44:32;18.58;;;8.80;;
75691;SDS011;64307;52.508;6.090;2022-11-20T05:46:57;17.48;;;9.63;;
75691;SDS011;64307;52.508;6.090;2022-11-20T05:49:22;17.23;;;9.23;;
75691;SDS011;64307;52.508;6.090;2022-11-20T05:51:48;16.77;;;8.13;;
75691;SDS011;64307;52.508;6.090;2022-11-20T05:54:13;14.32;;;8.38;;
75691;SDS011;64307;52.508;6.090;2022-11-20T05:56:39;16.58;;;9.20;;
75691;SDS011;64307;52.508;6.090;2022-11-20T05:59:04;15.47;;;7.30;;
75691;SDS011;64307;52.508;6.090;2022-11-20T06:01:29;17.17;;;9.52;;
75691;SDS011;64307;52.508;6.090;2022-11-20T06:03:54;13.47;;;7.77;;
75691;SDS011;64307;52.508;6.090;2022-11-20T06:06:20;14.48;;;8.57;;
75691;SDS011;64307;52.508;6.090;2022-11-20T06:08:45;15.02;;;7.68;;
75691;SDS011;64307;52.508;6.090;2022-11-20T06:11:12;15.82;;;8.23;;
75691;SDS011;64307;52.508;6.090;2022-11-20T06:13:38;17.25;;;8.15;;
75691;SDS011;64307;52.508;6.090;2022-11-20T06:16:04;14.43;;;7.75;;
75691;SDS011;64307;52.508;6.090;2022-11-20T06:18:30;16.10;;;8.40;;
75691;SDS011;64307;52.508;6.090;2022-11-20T06:21:29;15.20;;;8.07;;
75691;SDS011;64307;52.508;6.090;2022-11-20T06:23:47;14.23;;;8.05;;
75691;SDS011;64307;52.508;6.090;2022-11-20T06:26:17;13.13;;;7.60;;
75691;SDS011;64307;52.508;6.090;2022-11-20T06:28:44;14.82;;;7.85;;
75691;SDS011;64307;52.508;6.090;2022-11-20T06:31:11;15.13;;;8.07;;
75691;SDS011;64307;52.508;6.090;2022-11-20T06:33:38;16.00;;;8.45;;
75691;SDS011;64307;52.508;6.090;2022-11-20T06:36:04;16.48;;;7.35;;
75691;SDS011;64307;52.508;6.090;2022-11-20T06:38:29;12.93;;;6.18;;
75691;SDS011;64307;52.508;6.090;2022-11-20T06:40:55;14.20;;;7.78;;
75691;SDS011;64307;52.508;6.090;2022-11-20T06:43:21;13.55;;;7.53;;
75691;SDS011;64307;52.508;6.090;2022-11-20T06:45:51;17.83;;;8.55;;
75691;SDS011;64307;52.508;6.090;2022-11-20T06:48:17;18.50;;;8.50;;
75691;SDS011;64307;52.508;6.090;2022-11-20T06:50:43;18.10;;;8.50;;
75691;SDS011;64307;52.508;6.090;2022-11-20T06:53:08;16.97;;;8.00;;
75691;SDS011;64307;52.508;6.090;2022-11-20T06:55:33;16.03;;;8.57;;
75691;SDS011;64307;52.508;6.090;2022-11-20T06:57:58;16.73;;;9.43;;
75691;SDS011;64307;52.508;6.090;2022-11-20T07:00:24;18.43;;;9.60;;
75691;SDS011;64307;52.508;6.090;2022-11-20T07:02:49;20.27;;;9.75;;
75691;SDS011;64307;52.508;6.090;2022-11-20T07:05:14;16.93;;;9.30;;
75691;SDS011;64307;52.508;6.090;2022-11-20T07:07:40;16.17;;;8.55;;
75691;SDS011;64307;52.508;6.090;2022-11-20T07:10:06;17.58;;;9.20;;
75691;SDS011;64307;52.508;6.090;2022-11-20T07:12:31;16.92;;;8.75;;
75691;SDS011;64307;52.508;6.090;2022-11-20T07:14:56;16.52;;;8.90;;
75691;SDS011;64307;52.508;6.090;2022-11-20T07:17:22;18.52;;;9.00;;
75691;SDS011;64307;52.508;6.090;2022-11-20T07:19:47;16.27;;;8.10;;
75691;SDS011;64307;52.508;6.090;2022-11-20T07:22:12;17.15;;;7.70;;
75691;SDS011;64307;52.508;6.090;2022-11-20T07:24:38;17.25;;;7.88;;
75691;SDS011;64307;52.508;6.090;2022-11-20T07:27:04;17.30;;;8.48;;
75691;SDS011;64307;52.508;6.090;2022-11-20T07:29:29;17.15;;;8.98;;
75691;SDS011;64307;52.508;6.090;2022-11-20T07:31:55;15.05;;;7.88;;
75691;SDS011;64307;52.508;6.090;2022-11-20T07:34:23;17.70;;;8.95;;
75691;SDS011;64307;52.508;6.090;2022-11-20T07:36:52;15.15;;;7.88;;
75691;SDS011;64307;52.508;6.090;2022-11-20T07:39:17;20.60;;;8.53;;
75691;SDS011;64307;52.508;6.090;2022-11-20T07:41:42;17.42;;;8.00;;
75691;SDS011;64307;52.508;6.090;2022-11-20T07:44:07;17.37;;;8.10;;
75691;SDS011;64307;52.508;6.090;2022-11-20T07:46:33;18.70;;;8.95;;
75691;SDS011;64307;52.508;6.090;2022-11-20T07:48:58;17.47;;;8.93;;
75691;SDS011;64307;52.508;6.090;2022-11-20T07:51:23;17.80;;;9.23;;
75691;SDS011;64307;52.508;6.090;2022-11-20T07:53:52;17.00;;;7.55;;
75691;SDS011;64307;52.508;6.090;2022-11-20T07:56:17;17.73;;;8.18;;
75691;SDS011;64307;52.508;6.090;2022-11-20T07:58:43;16.27;;;8.63;;
75691;SDS011;64307;52.508;6.090;2022-11-20T08:01:09;16.33;;;8.00;;
75691;SDS011;64307;52.508;6.090;2022-11-20T08:03:34;16.52;;;7.13;;
75691;SDS011;64307;52.508;6.090;2022-11-20T08:06:02;17.90;;;8.55;;
75691;SDS011;64307;52.508;6.090;2022-11-20T08:08:29;16.92;;;8.68;;
75691;SDS011;64307;52.508;6.090;2022-11-20T08:10:56;14.75;;;8.30;;
75691;SDS011;64307;52.508;6.090;2022-11-20T08:13:42;18.60;;;8.90;;
75691;SDS011;64307;52.508;6.090;2022-11-20T08:16:26;17.90;;;8.43;;
75691;SDS011;64307;52.508;6.090;2022-11-20T08:18:51;19.63;;;9.25;;
75691;SDS011;64307;52.508;6.090;2022-11-20T08:21:16;17.13;;;8.53;;
75691;SDS011;64307;52.508;6.090;2022-11-20T08:23:42;18.35;;;9.10;;
75691;SDS011;64307;52.508;6.090;2022-11-20T08:26:07;16.87;;;8.67;;
75691;SDS011;64307;52.508;6.090;2022-11-20T08:28:32;17.25;;;9.27;;
75691;SDS011;64307;52.508;6.090;2022-11-20T08:31:01;21.88;;;11.20;;
75691;SDS011;64307;52.508;6.090;2022-11-20T08:33:27;21.40;;;10.38;;
75691;SDS011;64307;52.508;6.090;2022-11-20T08:38:23;21.55;;;12.20;;
75691;SDS011;64307;52.508;6.090;2022-11-20T08:40:48;18.73;;;10.43;;
75691;SDS011;64307;52.508;6.090;2022-11-20T08:43:33;21.65;;;10.45;;
75691;SDS011;64307;52.508;6.090;2022-11-20T08:45:59;19.70;;;9.93;;
75691;SDS011;64307;52.508;6.090;2022-11-20T08:48:24;21.40;;;10.38;;
75691;SDS011;64307;52.508;6.090;2022-11-20T08:50:49;19.63;;;9.97;;
75691;SDS011;64307;52.508;6.090;2022-11-20T08:53:14;26.10;;;14.18;;
75691;SDS011;64307;52.508;6.090;2022-11-20T08:55:40;21.60;;;12.23;;
75691;SDS011;64307;52.508;6.090;2022-11-20T08:58:05;17.73;;;10.23;;
75691;SDS011;64307;52.508;6.090;2022-11-20T09:00:31;19.67;;;11.02;;
75691;SDS011;64307;52.508;6.090;2022-11-20T09:02:57;19.98;;;9.35;;
75691;SDS011;64307;52.508;6.090;2022-11-20T09:05:23;18.08;;;10.40;;
75691;SDS011;64307;52.508;6.090;2022-11-20T09:07:49;18.83;;;11.13;;
75691;SDS011;64307;52.508;6.090;2022-11-20T09:10:14;19.40;;;10.67;;
75691;SDS011;64307;52.508;6.090;2022-11-20T09:12:39;17.97;;;11.17;;
75691;SDS011;64307;52.508;6.090;2022-11-20T09:15:05;20.27;;;12.67;;
75691;SDS011;64307;52.508;6.090;2022-11-20T09:17:30;21.88;;;15.02;;
75691;SDS011;64307;52.508;6.090;2022-11-20T09:19:55;37.70;;;20.40;;
75691;SDS011;64307;52.508;6.090;2022-11-20T09:24:47;23.03;;;14.83;;
75691;SDS011;64307;52.508;6.090;2022-11-20T09:27:12;18.33;;;13.43;;
75691;SDS011;64307;52.508;6.090;2022-11-20T09:29:37;37.10;;;23.10;;
75691;SDS011;64307;52.508;6.090;2022-11-20T09:32:03;33.58;;;23.48;;
75691;SDS011;64307;52.508;6.090;2022-11-20T09:34:28;20.98;;;17.42;;
75691;SDS011;64307;52.508;6.090;2022-11-20T09:36:54;17.42;;;14.20;;
75691;SDS011;64307;52.508;6.090;2022-11-20T09:39:19;17.27;;;13.65;;
75691;SDS011;64307;52.508;6.090;2022-11-20T09:42:05;16.90;;;12.93;;
75691;SDS011;64307;52.508;6.090;2022-11-20T09:47:46;15.77;;;12.23;;
75691;SDS011;64307;52.508;6.090;2022-11-20T09:56:15;15.77;;;12.85;;
75691;SDS011;64307;52.508;6.090;2022-11-20T09:58:54;14.90;;;12.63;;
75691;SDS011;64307;52.508;6.090;2022-11-20T10:01:23;16.35;;;12.75;;
75691;SDS011;64307;52.508;6.090;2022-11-20T10:09:35;18.05;;;13.27;;
75691;SDS011;64307;52.508;6.090;2022-11-20T10:14:48;17.23;;;11.40;;
75691;SDS011;64307;52.508;6.090;2022-11-20T10:17:43;17.30;;;10.32;;
75691;SDS011;64307;52.508;6.090;2022-11-20T10:20:43;19.00;;;10.55;;
75691;SDS011;64307;52.508;6.090;2022-11-20T10:31:34;16.88;;;9.40;;
75691;SDS011;64307;52.508;6.090;2022-11-20T10:36:48;24.60;;;10.70;;
75691;SDS011;64307;52.508;6.090;2022-11-20T10:39:24;20.50;;;12.27;;
75691;SDS011;64307;52.508;6.090;2022-11-20T10:41:56;20.95;;;11.05;;
75691;SDS011;64307;52.508;6.090;2022-11-20T10:44:24;20.50;;;11.38;;
75691;SDS011;64307;52.508;6.090;2022-11-20T10:47:17;19.48;;;10.32;;
75691;SDS011;64307;52.508;6.090;2022-11-20T10:49:44;18.85;;;9.75;;
75691;SDS011;64307;52.508;6.090;2022-11-20T10:55:00;19.88;;;11.23;;
75691;SDS011;64307;52.508;6.090;2022-11-20T10:57:54;20.02;;;10.23;;
75691;SDS011;64307;52.508;6.090;2022-11-20T11:00:30;22.25;;;10.82;;
75691;SDS011;64307;52.508;6.090;2022-11-20T11:02:56;19.90;;;11.85;;
75691;SDS011;64307;52.508;6.090;2022-11-20T11:05:39;18.40;;;10.43;;
75691;SDS011;64307;52.508;6.090;2022-11-20T11:08:13;19.40;;;11.15;;
75691;SDS011;64307;52.508;6.090;2022-11-20T11:10:59;18.80;;;10.00;;
75691;SDS011;64307;52.508;6.090;2022-11-20T11:13:28;19.35;;;11.18;;
75691;SDS011;64307;52.508;6.090;2022-11-20T11:15:54;15.40;;;9.50;;
75691;SDS011;64307;52.508;6.090;2022-11-20T11:18:30;28.83;;;17.27;;
75691;SDS011;64307;52.508;6.090;2022-11-20T11:20:59;24.13;;;13.75;;
75691;SDS011;64307;52.508;6.090;2022-11-20T11:23:28;36.58;;;20.15;;
75691;SDS011;64307;52.508;6.090;2022-11-20T11:25:57;18.63;;;11.25;;
75691;SDS011;64307;52.508;6.090;2022-11-20T11:28:24;31.27;;;17.02;;
75691;SDS011;64307;52.508;6.090;2022-11-20T11:30:52;23.25;;;12.93;;
75691;SDS011;64307;52.508;6.090;2022-11-20T11:33:19;20.58;;;12.25;;
75691;SDS011;64307;52.508;6.090;2022-11-20T11:35:53;21.58;;;12.90;;
75691;SDS011;64307;52.508;6.090;2022-11-20T11:38:30;16.25;;;10.98;;
75691;SDS011;64307;52.508;6.090;2022-11-20T11:41:01;17.13;;;9.77;;
75691;SDS011;64307;52.508;6.090;2022-11-20T11:43:29;15.38;;;10.43;;
75691;SDS011;64307;52.508;6.090;2022-11-20T11:49:08;17.05;;;10.02;;
75691;SDS011;64307;52.508;6.090;2022-11-20T11:55:14;14.75;;;9.48;;
75691;SDS011;64307;52.508;6.090;2022-11-20T11:57:26;18.42;;;10.13;;
75691;SDS011;64307;52.508;6.090;2022-11-20T12:00:14;18.23;;;10.55;;
75691;SDS011;64307;52.508;6.090;2022-11-20T12:05:55;19.80;;;10.52;;
75691;SDS011;64307;52.508;6.090;2022-11-20T12:16:20;18.83;;;10.90;;
75691;SDS011;64307;52.508;6.090;2022-11-20T12:18:50;17.35;;;10.23;;
75691;SDS011;64307;52.508;6.090;2022-11-20T12:21:18;17.25;;;9.52;;
75691;SDS011;64307;52.508;6.090;2022-11-20T12:29:28;19.05;;;10.50;;
75691;SDS011;64307;52.508;6.090;2022-11-20T12:32:16;16.88;;;9.43;;
75691;SDS011;64307;52.508;6.090;2022-11-20T12:35:12;18.23;;;10.23;;
75691;SDS011;64307;52.508;6.090;2022-11-20T12:40:54;17.92;;;10.55;;
75691;SDS011;64307;52.508;6.090;2022-11-20T12:43:21;18.52;;;9.55;;
75691;SDS011;64307;52.508;6.090;2022-11-20T12:49:03;17.25;;;9.68;;
75691;SDS011;64307;52.508;6.090;2022-11-20T12:57:29;16.48;;;8.60;;
75691;SDS011;64307;52.508;6.090;2022-11-20T13:00:22;11.40;;;6.43;;
75691;SDS011;64307;52.508;6.090;2022-11-20T13:02:57;18.13;;;9.93;;
75691;SDS011;64307;52.508;6.090;2022-11-20T13:08:42;18.98;;;10.60;;
75691;SDS011;64307;52.508;6.090;2022-11-20T13:16:53;19.08;;;10.25;;
75691;SDS011;64307;52.508;6.090;2022-11-20T13:19:24;18.73;;;9.93;;
75691;SDS011;64307;52.508;6.090;2022-11-20T13:21:50;14.32;;;8.60;;
75691;SDS011;64307;52.508;6.090;2022-11-20T13:26:43;16.25;;;9.98;;
75691;SDS011;64307;52.508;6.090;2022-11-20T13:29:10;20.33;;;12.48;;
75691;SDS011;64307;52.508;6.090;2022-11-20T13:31:42;13.50;;;8.07;;
75691;SDS011;64307;52.508;6.090;2022-11-20T13:34:11;14.02;;;8.02;;
75691;SDS011;64307;52.508;6.090;2022-11-20T13:36:48;18.65;;;9.90;;
75691;SDS011;64307;52.508;6.090;2022-11-20T13:39:23;19.23;;;11.23;;
75691;SDS011;64307;52.508;6.090;2022-11-20T13:42:21;15.30;;;9.13;;
75691;SDS011;64307;52.508;6.090;2022-11-20T13:47:25;12.98;;;7.30;;
75691;SDS011;64307;52.508;6.090;2022-11-20T13:49:52;13.10;;;7.68;;
75691;SDS011;64307;52.508;6.090;2022-11-20T13:55:15;17.20;;;9.95;;
75691;SDS011;64307;52.508;6.090;2022-11-20T14:00:24;16.55;;;9.20;;
75691;SDS011;64307;52.508;6.090;2022-11-20T14:03:01;14.60;;;8.38;;
75691;SDS011;64307;52.508;6.090;2022-11-20T14:05:30;15.10;;;7.82;;
75691;SDS011;64307;52.508;6.090;2022-11-20T14:08:02;17.60;;;9.05;;
75691;SDS011;64307;52.508;6.090;2022-11-20T14:10:30;14.23;;;8.57;;
75691;SDS011;64307;52.508;6.090;2022-11-20T14:12:55;23.65;;;12.15;;
75691;SDS011;64307;52.508;6.090;2022-11-20T14:15:24;25.17;;;13.43;;
75691;SDS011;64307;52.508;6.090;2022-11-20T14:17:55;15.82;;;8.65;;
75691;SDS011;64307;52.508;6.090;2022-11-20T14:20:20;17.05;;;9.95;;
75691;SDS011;64307;52.508;6.090;2022-11-20T14:22:51;18.65;;;10.18;;
75691;SDS011;64307;52.508;6.090;2022-11-20T14:27:43;17.53;;;9.43;;
75691;SDS011;64307;52.508;6.090;2022-11-20T14:30:14;14.43;;;8.68;;
75691;SDS011;64307;52.508;6.090;2022-11-20T14:32:44;17.65;;;9.43;;
75691;SDS011;64307;52.508;6.090;2022-11-20T14:35:25;18.10;;;9.45;;
75691;SDS011;64307;52.508;6.090;2022-11-20T14:37:52;12.55;;;7.57;;
75691;SDS011;64307;52.508;6.090;2022-11-20T14:40:35;14.20;;;8.45;;
75691;SDS011;64307;52.508;6.090;2022-11-20T14:43:01;12.30;;;7.65;;
75691;SDS011;64307;52.508;6.090;2022-11-20T14:45:41;17.05;;;8.35;;
75691;SDS011;64307;52.508;6.090;2022-11-20T14:48:08;14.52;;;7.65;;
75691;SDS011;64307;52.508;6.090;2022-11-20T14:50:35;14.95;;;8.63;;
75691;SDS011;64307;52.508;6.090;2022-11-20T14:53:02;15.40;;;9.27;;
75691;SDS011;64307;52.508;6.090;2022-11-20T14:55:29;14.60;;;8.67;;
75691;SDS011;64307;52.508;6.090;2022-11-20T14:58:41;18.13;;;10.48;;
75691;SDS011;64307;52.508;6.090;2022-11-20T15:00:59;15.55;;;8.60;;
75691;SDS011;64307;52.508;6.090;2022-11-20T15:03:32;14.65;;;7.95;;
75691;SDS011;64307;52.508;6.090;2022-11-20T15:06:00;16.08;;;8.70;;
75691;SDS011;64307;52.508;6.090;2022-11-20T15:08:25;27.17;;;16.30;;
75691;SDS011;64307;52.508;6.090;2022-11-20T15:10:51;18.75;;;10.68;;
75691;SDS011;64307;52.508;6.090;2022-11-20T15:13:34;18.63;;;10.18;;
75691;SDS011;64307;52.508;6.090;2022-11-20T15:16:02;21.25;;;11.60;;
75691;SDS011;64307;52.508;6.090;2022-11-20T15:18:30;17.08;;;9.90;;
75691;SDS011;64307;52.508;6.090;2022-11-20T15:21:02;25.95;;;14.68;;
75691;SDS011;64307;52.508;6.090;2022-11-20T15:23:29;16.10;;;9.43;;
75691;SDS011;64307;52.508;6.090;2022-11-20T15:25:54;18.05;;;10.02;;
75691;SDS011;64307;52.508;6.090;2022-11-20T15:28:21;17.08;;;8.80;;
75691;SDS011;64307;52.508;6.090;2022-11-20T15:30:52;18.05;;;10.15;;
75691;SDS011;64307;52.508;6.090;2022-11-20T15:33:17;17.50;;;9.88;;
75691;SDS011;64307;52.508;6.090;2022-11-20T15:35:43;17.77;;;10.13;;
75691;SDS011;64307;52.508;6.090;2022-11-20T15:38:09;20.17;;;12.15;;
75691;SDS011;64307;52.508;6.090;2022-11-20T15:40:34;18.35;;;10.23;;
75691;SDS011;64307;52.508;6.090;2022-11-20T15:43:00;18.42;;;10.50;;
75691;SDS011;64307;52.508;6.090;2022-11-20T15:45:33;17.48;;;10.20;;
75691;SDS011;64307;52.508;6.090;2022-11-20T15:48:10;20.40;;;10.90;;
75691;SDS011;64307;52.508;6.090;2022-11-20T15:50:43;17.50;;;10.75;;
75691;SDS011;64307;52.508;6.090;2022-11-20T15:53:15;17.63;;;9.68;;
75691;SDS011;64307;52.508;6.090;2022-11-20T15:55:41;20.05;;;11.68;;
75691;SDS011;64307;52.508;6.090;2022-11-20T15:58:06;20.53;;;11.37;;
75691;SDS011;64307;52.508;6.090;2022-11-20T16:00:31;19.52;;;10.60;;
75691;SDS011;64307;52.508;6.090;2022-11-20T16:02:56;19.70;;;10.32;;
75691;SDS011;64307;52.508;6.090;2022-11-20T16:05:22;19.58;;;10.75;;
75691;SDS011;64307;52.508;6.090;2022-11-20T16:07:48;23.02;;;12.00;;
75691;SDS011;64307;52.508;6.090;2022-11-20T16:10:15;21.65;;;12.43;;
75691;SDS011;64307;52.508;6.090;2022-11-20T16:12:40;24.90;;;13.80;;
75691;SDS011;64307;52.508;6.090;2022-11-20T16:15:24;26.45;;;14.60;;
75691;SDS011;64307;52.508;6.090;2022-11-20T16:18:08;29.48;;;15.77;;
75691;SDS011;64307;52.508;6.090;2022-11-20T16:20:35;28.08;;;15.00;;
75691;SDS011;64307;52.508;6.090;2022-11-20T16:23:00;27.50;;;15.15;;
75691;SDS011;64307;52.508;6.090;2022-11-20T16:25:26;24.60;;;14.18;;
75691;SDS011;64307;52.508;6.090;2022-11-20T16:27:52;22.63;;;12.60;;
75691;SDS011;64307;52.508;6.090;2022-11-20T16:30:18;29.17;;;13.97;;